Time;durP1;ratioP1;P1;durP2;ratioP2;P2;SDS_P1;SDS_P2;PMS_P1;PMS_P2;Temp;Humidity;BMP_temperature;BMP_pressure;BME280_temperature;BME280_humidity;BME280_pressure;Samples;Min_cycle;Max_cycle;Signal;HPM_P1;HPM_P2
2023/08/19 00:01:22;;;;;;;17.55;13.93;;;20.60;93.60;;;;;;5048476;28;20443;-50
2023/08/19 00:03:49;;;;;;;20.73;13.80;;;20.60;93.50;;;;;;5056152;28;20035;-50
2023/08/19 00:06:39;;;;;;;17.70;14.80;;;20.60;93.40;;;;;;5063960;28;20024;-48
2023/08/19 00:09:08;;;;;;;14.60;13.18;;;20.60;93.40;;;;;;5069894;28;20377;-49
2023/08/19 00:11:37;;;;;;;14.85;12.93;;;20.60;93.40;;;;;;5076028;28;20039;-48
2023/08/19 00:14:06;;;;;;;17.08;14.90;;;20.60;93.40;;;;;;5075815;28;20453;-49
2023/08/19 00:16:35;;;;;;;17.10;13.90;;;20.60;93.40;;;;;;5069712;28;20020;-49
2023/08/19 00:19:03;;;;;;;17.10;14.52;;;20.60;93.30;;;;;;5076168;28;20028;-49
2023/08/19 00:21:29;;;;;;;14.55;13.05;;;20.60;93.30;;;;;;5074643;28;20028;-49
2023/08/19 00:23:57;;;;;;;19.30;13.88;;;20.60;93.20;;;;;;5074125;28;20035;-50
2023/08/19 00:29:40;;;;;;;15.27;13.32;;;20.50;93.30;;;;;;5074925;28;20037;-48
2023/08/19 00:32:07;;;;;;;13.30;11.88;;;20.50;93.30;;;;;;5055786;28;20036;-49
2023/08/19 00:34:34;;;;;;;15.38;12.63;;;20.50;93.30;;;;;;5075141;28;20040;-48
2023/08/19 00:37:03;;;;;;;15.45;13.02;;;20.50;93.40;;;;;;5073579;28;20108;-50
2023/08/19 00:39:29;;;;;;;17.58;15.50;;;20.50;93.40;;;;;;5075201;28;20056;-48
2023/08/19 00:41:56;;;;;;;18.77;14.32;;;20.50;93.40;;;;;;5074861;28;20115;-51
2023/08/19 00:44:23;;;;;;;15.60;12.23;;;20.50;93.40;;;;;;5062740;28;20051;-49
2023/08/19 00:46:50;;;;;;;14.35;12.95;;;20.50;93.50;;;;;;5070966;28;20029;-50
2023/08/19 00:49:17;;;;;;;19.85;13.88;;;20.60;93.50;;;;;;5075114;28;20096;-51
2023/08/19 00:51:44;;;;;;;15.30;13.40;;;20.60;93.50;;;;;;5054121;28;20471;-49
2023/08/19 00:54:11;;;;;;;14.90;13.10;;;20.50;93.50;;;;;;5074744;28;20090;-52
2023/08/19 00:56:38;;;;;;;15.10;13.48;;;20.60;93.50;;;;;;5073728;28;20031;-48
2023/08/19 00:59:05;;;;;;;15.57;14.02;;;20.60;93.40;;;;;;5074760;28;20017;-49
2023/08/19 01:01:33;;;;;;;16.67;13.05;;;20.60;93.40;;;;;;5070183;28;20469;-49
2023/08/19 01:04:00;;;;;;;16.75;14.45;;;20.60;93.30;;;;;;5074933;28;20699;-48
2023/08/19 01:06:43;;;;;;;16.52;13.75;;;20.60;93.30;;;;;;5072765;28;20028;-49
2023/08/19 01:09:31;;;;;;;15.50;13.20;;;20.60;93.20;;;;;;5074635;28;20082;-48
2023/08/19 01:12:33;;;;;;;15.10;13.05;;;20.60;93.20;;;;;;5072522;28;20089;-49
2023/08/19 01:15:32;;;;;;;15.38;13.30;;;20.60;93.10;;;;;;5073416;28;20027;-49
2023/08/19 01:18:03;;;;;;;17.40;13.93;;;20.60;93.10;;;;;;5055567;28;20044;-51
2023/08/19 01:20:31;;;;;;;14.98;13.38;;;20.50;93.10;;;;;;5073515;28;20107;-48
2023/08/19 01:23:05;;;;;;;17.40;14.77;;;20.50;93.10;;;;;;5073346;28;20028;-50
2023/08/19 01:25:32;;;;;;;16.52;13.80;;;20.50;93.20;;;;;;5073643;28;20497;-48
2023/08/19 01:28:05;;;;;;;15.98;14.32;;;20.50;93.20;;;;;;5074531;28;20024;-48
2023/08/19 01:30:33;;;;;;;14.82;13.25;;;20.40;93.20;;;;;;5071996;28;20081;-48
2023/08/19 01:33:04;;;;;;;16.50;14.85;;;20.40;93.20;;;;;;5050511;28;20505;-49
2023/08/19 01:35:39;;;;;;;17.05;14.85;;;20.40;93.20;;;;;;5073151;28;20139;-48
2023/08/19 01:38:23;;;;;;;16.92;15.30;;;20.40;93.20;;;;;;5074270;28;20032;-48
2023/08/19 01:40:50;;;;;;;16.88;15.13;;;20.40;93.30;;;;;;5034420;28;20052;-49
2023/08/19 01:43:18;;;;;;;16.77;15.07;;;20.40;93.30;;;;;;5034990;28;20108;-49
2023/08/19 01:45:45;;;;;;;21.58;18.25;;;20.40;93.30;;;;;;5041456;28;20025;-49
2023/08/19 01:48:11;;;;;;;20.42;17.80;;;20.40;93.30;;;;;;5034219;28;20032;-49
2023/08/19 01:50:37;;;;;;;21.67;19.23;;;20.40;93.40;;;;;;5034358;28;20029;-48
2023/08/19 01:53:04;;;;;;;20.77;17.98;;;20.40;93.40;;;;;;5034615;28;20343;-48
2023/08/19 01:55:31;;;;;;;23.75;18.27;;;20.40;93.40;;;;;;5053057;28;20044;-49
2023/08/19 01:57:58;;;;;;;22.17;18.33;;;20.40;93.50;;;;;;5053857;28;20413;-50
2023/08/19 02:00:28;;;;;;;19.17;17.17;;;20.40;93.50;;;;;;5053015;28;20100;-53
2023/08/19 02:02:54;;;;;;;20.23;17.50;;;20.30;93.40;;;;;;5046377;28;20033;-49
2023/08/19 02:05:21;;;;;;;19.55;17.65;;;20.30;93.40;;;;;;5034179;28;20462;-49
2023/08/19 02:07:48;;;;;;;22.85;20.50;;;20.40;93.50;;;;;;5053127;28;20056;-48
2023/08/19 02:10:14;;;;;;;21.10;18.77;;;20.40;93.40;;;;;;5036064;28;20028;-48
2023/08/19 02:12:40;;;;;;;21.38;19.25;;;20.40;93.50;;;;;;5040256;28;20465;-49
2023/08/19 02:15:07;;;;;;;22.88;18.77;;;20.40;93.50;;;;;;5033336;28;20033;-50
2023/08/19 02:17:34;;;;;;;24.08;21.77;;;20.40;93.50;;;;;;5053196;28;20031;-50
2023/08/19 02:20:00;;;;;;;23.63;21.17;;;20.40;93.50;;;;;;5052546;28;20029;-49
2023/08/19 02:22:26;;;;;;;22.35;20.25;;;20.40;93.40;;;;;;5052138;28;20392;-50
2023/08/19 02:24:52;;;;;;;23.45;19.70;;;20.40;93.40;;;;;;5053667;28;20024;-48
2023/08/19 02:27:19;;;;;;;21.42;19.25;;;20.40;93.30;;;;;;5052508;28;20083;-48
2023/08/19 02:29:45;;;;;;;21.80;19.80;;;20.30;93.30;;;;;;5052489;28;20447;-50
2023/08/19 02:32:11;;;;;;;25.55;22.83;;;20.30;93.30;;;;;;5052257;28;20060;-49
2023/08/19 02:34:40;;;;;;;25.10;22.85;;;20.30;93.40;;;;;;5053588;28;20036;-48
2023/08/19 02:37:09;;;;;;;23.38;21.10;;;20.20;93.40;;;;;;5039596;28;20036;-49
2023/08/19 02:39:35;;;;;;;23.90;21.52;;;20.20;93.40;;;;;;5046772;28;20127;-51
2023/08/19 02:42:02;;;;;;;24.80;22.48;;;20.20;93.50;;;;;;5073106;28;20023;-48
2023/08/19 02:44:32;;;;;;;24.17;21.65;;;20.20;93.60;;;;;;5072431;28;20103;-48
2023/08/19 02:46:58;;;;;;;24.55;22.35;;;20.20;93.70;;;;;;5057892;28;20605;-49
2023/08/19 02:49:26;;;;;;;26.90;24.23;;;20.20;93.70;;;;;;5071331;28;20032;-48
2023/08/19 02:51:53;;;;;;;26.60;24.17;;;20.20;93.70;;;;;;5067374;28;20071;-49
2023/08/19 02:54:19;;;;;;;26.98;24.30;;;20.20;93.80;;;;;;5072938;28;20365;-50
2023/08/19 02:56:49;;;;;;;27.00;24.48;;;20.20;93.80;;;;;;5055165;28;20770;-48
2023/08/19 02:59:15;;;;;;;26.75;24.13;;;20.20;93.90;;;;;;5064825;28;20025;-48
2023/08/19 03:01:41;;;;;;;27.27;24.42;;;20.10;93.90;;;;;;5047623;28;20085;-48
2023/08/19 03:04:14;;;;;;;30.85;25.25;;;20.10;93.90;;;;;;5071781;28;20028;-49
2023/08/19 03:06:41;;;;;;;26.90;23.88;;;20.10;93.80;;;;;;5068545;28;20024;-48
2023/08/19 03:09:08;;;;;;;28.88;25.85;;;20.00;93.80;;;;;;5071321;28;20051;-49
2023/08/19 03:11:36;;;;;;;26.15;23.88;;;20.00;93.80;;;;;;5071636;28;20028;-53
2023/08/19 03:14:05;;;;;;;27.70;25.20;;;20.00;93.90;;;;;;5053185;28;20032;-48
2023/08/19 03:16:35;;;;;;;25.73;23.25;;;19.90;93.90;;;;;;5069797;28;20036;-48
2023/08/19 03:19:02;;;;;;;26.45;23.80;;;19.90;93.90;;;;;;5065858;28;20036;-48
2023/08/19 03:21:30;;;;;;;29.40;26.52;;;19.90;93.80;;;;;;5040416;28;20338;-48
2023/08/19 03:23:57;;;;;;;26.25;23.80;;;19.90;94.00;;;;;;5056210;28;20024;-48
2023/08/19 03:26:24;;;;;;;27.95;25.30;;;19.90;94.10;;;;;;5069707;28;20043;-47
2023/08/19 03:28:52;;;;;;;28.30;25.77;;;19.90;94.10;;;;;;5052047;28;20032;-47
2023/08/19 03:31:17;;;;;;;26.65;23.80;;;19.80;94.10;;;;;;5042992;28;20429;-48
2023/08/19 03:33:43;;;;;;;26.15;23.75;;;19.80;94.10;;;;;;5050934;28;20047;-48
2023/08/19 03:36:10;;;;;;;27.60;24.90;;;19.80;94.10;;;;;;5056338;28;20180;-48
2023/08/19 03:38:37;;;;;;;25.80;23.33;;;19.80;94.10;;;;;;5060386;28;20458;-47
2023/08/19 03:41:06;;;;;;;28.45;25.83;;;19.70;94.10;;;;;;5070703;28;20414;-47
2023/08/19 03:43:33;;;;;;;27.17;24.75;;;19.70;94.10;;;;;;5070604;28;20024;-48
2023/08/19 03:46:03;;;;;;;29.48;26.45;;;19.70;94.20;;;;;;5068580;28;20037;-48
2023/08/19 03:48:29;;;;;;;28.10;25.45;;;19.70;94.20;;;;;;5053832;28;20033;-49
2023/08/19 03:50:56;;;;;;;28.92;26.27;;;19.50;94.10;;;;;;5048196;28;20033;-47
2023/08/19 03:53:25;;;;;;;29.05;26.42;;;19.60;94.30;;;;;;5040115;28;20078;-47
2023/08/19 03:55:54;;;;;;;28.42;25.85;;;19.60;94.50;;;;;;5051948;28;20025;-50
2023/08/19 03:58:20;;;;;;;29.83;27.05;;;19.60;94.50;;;;;;5056020;28;20060;-48
2023/08/19 04:00:47;;;;;;;27.35;24.75;;;19.60;94.60;;;;;;5066376;28;20109;-48
2023/08/19 04:03:13;;;;;;;30.00;26.88;;;19.50;94.60;;;;;;5072092;28;20029;-47
2023/08/19 04:05:39;;;;;;;29.02;26.42;;;19.50;94.60;;;;;;5070689;28;20044;-47
2023/08/19 04:08:05;;;;;;;29.40;26.40;;;19.50;94.70;;;;;;5059335;28;20356;-47
2023/08/19 04:10:35;;;;;;;31.15;28.08;;;19.50;94.80;;;;;;5070179;28;20049;-46
2023/08/19 04:13:02;;;;;;;30.27;27.38;;;19.60;94.80;;;;;;5071007;28;20086;-47
2023/08/19 04:15:30;;;;;;;30.90;28.00;;;19.60;94.90;;;;;;5069961;28;20032;-47
2023/08/19 04:17:57;;;;;;;30.88;26.85;;;19.70;95.00;;;;;;5057844;28;20434;-46
2023/08/19 04:20:25;;;;;;;30.70;27.77;;;19.70;95.00;;;;;;5052801;28;20031;-49
2023/08/19 04:22:51;;;;;;;30.42;27.35;;;19.70;95.10;;;;;;5065886;28;20082;-47
2023/08/19 04:25:21;;;;;;;32.65;29.35;;;19.70;95.10;;;;;;5058063;28;20437;-47
2023/08/19 04:27:50;;;;;;;31.73;28.73;;;19.70;95.10;;;;;;5052340;28;20380;-46
2023/08/19 04:30:18;;;;;;;31.17;28.17;;;19.70;95.10;;;;;;5064656;28;20040;-47
2023/08/19 04:32:47;;;;;;;28.88;26.30;;;19.70;95.20;;;;;;5070904;28;20036;-46
2023/08/19 04:35:15;;;;;;;29.92;27.02;;;19.70;95.20;;;;;;5070418;28;20032;-47
2023/08/19 04:37:42;;;;;;;30.02;26.92;;;19.70;95.20;;;;;;5062336;28;20025;-47
2023/08/19 04:40:13;;;;;;;31.73;28.70;;;19.80;95.30;;;;;;5055275;28;20072;-47
2023/08/19 04:42:41;;;;;;;29.17;26.67;;;19.80;95.30;;;;;;5068448;28;20075;-47
2023/08/19 04:45:09;;;;;;;32.85;29.63;;;19.80;95.20;;;;;;5056958;28;20433;-48
2023/08/19 04:47:36;;;;;;;34.47;31.20;;;19.80;95.20;;;;;;5073237;28;20426;-46
2023/08/19 04:50:08;;;;;;;31.25;28.45;;;19.90;95.20;;;;;;5075182;28;20028;-48
2023/08/19 04:52:35;;;;;;;35.70;32.20;;;19.90;95.20;;;;;;5064591;28;20081;-46
2023/08/19 04:55:05;;;;;;;34.72;31.13;;;19.90;95.20;;;;;;5073080;28;20056;-47
2023/08/19 04:57:32;;;;;;;36.30;32.80;;;19.90;95.20;;;;;;5065547;28;20071;-47
2023/08/19 04:59:58;;;;;;;34.45;31.35;;;19.90;95.20;;;;;;5067146;28;20128;-47
2023/08/19 05:02:25;;;;;;;40.63;36.45;;;19.90;95.20;;;;;;5064146;28;20111;-47
2023/08/19 05:04:52;;;;;;;39.10;35.03;;;19.90;95.10;;;;;;5055972;28;20401;-47
2023/08/19 05:07:19;;;;;;;40.97;36.88;;;20.00;95.10;;;;;;5050914;28;20048;-47
2023/08/19 05:09:46;;;;;;;43.17;38.88;;;20.00;95.20;;;;;;5047464;28;20025;-47
2023/08/19 05:12:14;;;;;;;39.17;35.38;;;20.00;95.10;;;;;;5062142;28;20562;-46
2023/08/19 05:14:40;;;;;;;42.30;37.85;;;20.00;95.10;;;;;;5061920;28;20020;-47
2023/08/19 05:17:07;;;;;;;42.90;38.22;;;20.10;95.10;;;;;;5064847;28;20029;-48
2023/08/19 05:19:37;;;;;;;41.80;37.58;;;20.10;95.10;;;;;;5048689;28;20032;-46
2023/08/19 05:22:04;;;;;;;41.20;37.17;;;20.10;95.10;;;;;;5064904;28;20024;-47
2023/08/19 05:24:34;;;;;;;41.22;37.13;;;20.20;95.10;;;;;;5048269;28;20428;-47
2023/08/19 05:27:01;;;;;;;40.10;36.10;;;20.30;95.10;;;;;;5064904;28;20024;-49
2023/08/19 05:29:28;;;;;;;38.88;35.30;;;20.40;95.10;;;;;;5065570;28;20086;-50
2023/08/19 05:31:58;;;;;;;40.90;36.78;;;20.40;95.10;;;;;;5063844;28;20075;-47
2023/08/19 05:34:27;;;;;;;37.83;34.35;;;20.40;95.00;;;;;;5067610;28;20333;-47
2023/08/19 05:36:54;;;;;;;36.33;33.03;;;20.40;95.00;;;;;;5049802;28;20516;-49
2023/08/19 05:39:21;;;;;;;37.15;33.55;;;20.50;95.00;;;;;;5053165;28;20055;-47
2023/08/19 05:41:48;;;;;;;36.97;33.55;;;20.50;95.00;;;;;;5054181;28;20021;-47
2023/08/19 05:44:14;;;;;;;36.35;32.47;;;20.60;94.90;;;;;;5050593;28;20119;-47
2023/08/19 05:46:41;;;;;;;32.83;29.95;;;20.60;94.80;;;;;;5055383;28;20112;-48
2023/08/19 05:49:07;;;;;;;34.45;31.15;;;20.60;94.80;;;;;;5061422;28;20056;-48
2023/08/19 05:51:34;;;;;;;32.53;29.50;;;20.70;94.60;;;;;;5057515;28;20103;-48
2023/08/19 05:54:04;;;;;;;31.92;28.65;;;20.70;94.60;;;;;;5057612;28;20039;-47
2023/08/19 05:56:31;;;;;;;;;;;20.80;94.40;;;;;;5072588;28;20103;-48
2023/08/19 05:58:57;;;;;;;31.30;28.08;;;20.90;94.40;;;;;;5073101;28;19908;-50
2023/08/19 06:01:25;;;;;;;28.08;25.45;;;20.90;94.20;;;;;;5071781;28;20060;-50
2023/08/19 06:03:51;;;;;;;31.52;28.67;;;20.90;94.10;;;;;;5065187;28;20086;-47
2023/08/19 06:06:17;;;;;;;29.42;26.60;;;20.90;94.10;;;;;;5067487;28;20438;-48
2023/08/19 06:08:44;;;;;;;31.00;28.08;;;20.90;94.00;;;;;;5072830;28;20033;-48
2023/08/19 06:11:13;;;;;;;29.83;27.00;;;21.00;93.90;;;;;;5065446;28;20484;-49
2023/08/19 06:13:39;;;;;;;30.27;27.60;;;21.10;93.80;;;;;;5043230;28;20037;-48
2023/08/19 06:16:05;;;;;;;31.65;28.60;;;21.10;93.70;;;;;;5064719;28;20116;-48
2023/08/19 06:18:32;;;;;;;28.55;25.77;;;21.10;93.70;;;;;;5065207;28;20108;-53
2023/08/19 06:20:59;;;;;;;31.00;28.02;;;21.20;93.60;;;;;;5066224;28;20029;-48
2023/08/19 06:23:26;;;;;;;30.13;27.23;;;21.20;93.60;;;;;;5056978;28;20017;-48
2023/08/19 06:25:54;;;;;;;31.75;28.52;;;21.20;93.60;;;;;;5068226;28;20086;-50
2023/08/19 06:28:24;;;;;;;30.52;27.75;;;21.30;93.50;;;;;;5072661;28;20120;-49
2023/08/19 06:30:53;;;;;;;30.35;27.38;;;21.40;93.40;;;;;;5057914;28;20059;-48
2023/08/19 06:33:20;;;;;;;28.88;26.00;;;21.40;93.20;;;;;;5053656;28;20041;-51
2023/08/19 06:35:49;;;;;;;28.10;25.45;;;21.40;93.00;;;;;;5055977;28;20028;-49
2023/08/19 06:38:26;;;;;;;30.53;27.40;;;21.50;92.90;;;;;;5038029;28;20067;-53
2023/08/19 06:41:02;;;;;;;28.55;25.88;;;21.60;92.80;;;;;;5052609;28;20051;-50
2023/08/19 06:43:30;;;;;;;28.65;26.05;;;21.60;92.60;;;;;;5071684;28;20127;-49
2023/08/19 06:45:58;;;;;;;28.58;25.98;;;21.70;92.50;;;;;;5063175;28;20414;-49
2023/08/19 06:48:27;;;;;;;29.55;26.85;;;21.70;92.40;;;;;;5055163;28;20052;-52
2023/08/19 06:50:54;;;;;;;;;;;21.70;92.40;;;;;;5071416;28;20032;-50
2023/08/19 06:53:22;;;;;;;28.20;25.65;;;21.80;92.20;;;;;;5053901;28;20318;-53
2023/08/19 06:56:17;;;;;;;28.60;25.90;;;21.90;92.20;;;;;;5038270;28;20032;-52
2023/08/19 06:58:54;;;;;;;28.65;26.05;;;21.90;92.30;;;;;;5069912;28;20167;-50
2023/08/19 07:01:29;;;;;;;27.88;25.13;;;22.00;92.00;;;;;;5061136;28;20047;-51
2023/08/19 07:03:56;;;;;;;30.75;25.63;;;22.10;92.10;;;;;;5063681;28;20051;-51
2023/08/19 07:06:22;;;;;;;29.25;26.17;;;22.20;92.00;;;;;;5062998;28;20036;-53
2023/08/19 07:08:50;;;;;;;27.40;25.10;;;22.40;91.70;;;;;;5072570;28;20032;-50
2023/08/19 07:11:18;;;;;;;27.50;24.83;;;22.50;91.80;;;;;;5063787;28;20031;-56
2023/08/19 07:13:45;;;;;;;26.27;23.98;;;22.70;91.20;;;;;;5068393;28;20097;-51
2023/08/19 07:16:12;;;;;;;26.30;23.95;;;22.90;90.40;;;;;;5053425;28;20021;-51
2023/08/19 07:18:43;;;;;;;25.92;23.65;;;23.00;89.70;;;;;;5070222;28;20226;-52
2023/08/19 07:21:13;;;;;;;25.63;23.23;;;23.20;89.30;;;;;;5054239;28;20504;-53
2023/08/19 07:23:47;;;;;;;25.52;23.30;;;23.30;88.90;;;;;;5035772;28;20045;-54
2023/08/19 07:26:15;;;;;;;24.77;22.17;;;23.40;88.60;;;;;;5053393;28;20486;-54
2023/08/19 07:28:43;;;;;;;25.20;23.03;;;23.60;88.30;;;;;;5071794;28;20036;-53
2023/08/19 07:31:13;;;;;;;24.33;22.23;;;23.90;88.20;;;;;;5071289;28;20239;-50
2023/08/19 07:33:40;;;;;;;;;;;24.10;87.10;;;;;;5070277;28;20070;-49
2023/08/19 07:36:06;;;;;;;22.58;20.33;;;24.30;85.60;;;;;;5071337;28;19957;-53
2023/08/19 07:38:34;;;;;;;22.98;20.90;;;24.40;85.50;;;;;;5071163;28;20052;-51
2023/08/19 07:41:01;;;;;;;21.00;19.25;;;24.50;85.20;;;;;;5067056;28;20033;-50
2023/08/19 07:43:28;;;;;;;21.70;19.77;;;24.50;84.80;;;;;;5051842;28;20456;-51
2023/08/19 07:45:54;;;;;;;24.45;21.98;;;24.50;84.90;;;;;;5064613;28;20033;-55
2023/08/19 07:48:21;;;;;;;21.23;19.33;;;24.60;84.20;;;;;;5067618;28;20107;-51
2023/08/19 07:50:47;;;;;;;20.05;18.25;;;24.60;84.00;;;;;;5063583;28;20021;-54
2023/08/19 07:53:13;;;;;;;21.38;19.35;;;24.90;83.60;;;;;;5042825;28;20159;-52
2023/08/19 07:55:43;;;;;;;20.65;18.67;;;25.20;83.20;;;;;;5062021;28;20038;-53
2023/08/19 07:58:10;;;;;;;21.65;19.40;;;25.60;82.30;;;;;;5070042;28;20024;-51
2023/08/19 08:00:38;;;;;;;21.02;19.33;;;25.80;80.70;;;;;;5051653;28;20023;-55
2023/08/19 08:03:06;;;;;;;20.65;19.00;;;25.90;80.50;;;;;;5069715;28;20028;-51
2023/08/19 08:05:32;;;;;;;19.58;17.80;;;25.90;80.10;;;;;;5070818;28;20131;-51
2023/08/19 08:07:58;;;;;;;19.90;18.05;;;26.00;80.70;;;;;;5069970;28;20032;-51
2023/08/19 08:10:25;;;;;;;19.65;17.95;;;26.00;79.70;;;;;;5071420;28;20027;-50
2023/08/19 08:12:52;;;;;;;21.17;19.13;;;25.90;79.20;;;;;;5072516;28;20111;-51
2023/08/19 08:15:20;;;;;;;21.58;19.52;;;25.70;79.90;;;;;;5062347;28;20115;-51
2023/08/19 08:17:47;;;;;;;19.42;17.73;;;25.50;80.70;;;;;;5074782;28;20139;-53
2023/08/19 08:20:13;;;;;;;22.90;20.42;;;25.40;80.50;;;;;;5064304;28;20074;-53
2023/08/19 08:22:40;;;;;;;23.88;21.50;;;25.20;81.20;;;;;;5074183;28;20078;-52
2023/08/19 08:25:14;;;;;;;22.10;19.88;;;25.10;81.80;;;;;;5075207;28;20036;-51
2023/08/19 08:27:40;;;;;;;21.25;19.25;;;25.10;81.90;;;;;;5074579;28;20032;-52
2023/08/19 08:30:08;;;;;;;20.60;18.55;;;25.10;82.30;;;;;;5042515;28;20142;-54
2023/08/19 08:32:34;;;;;;;22.17;20.25;;;25.10;82.50;;;;;;5059139;28;20107;-54
2023/08/19 08:35:01;;;;;;;22.23;20.05;;;25.10;82.70;;;;;;5057568;28;20715;-52
2023/08/19 08:37:28;;;;;;;19.30;17.70;;;25.00;83.00;;;;;;5071283;28;20331;-50
2023/08/19 08:39:55;;;;;;;22.27;20.30;;;24.90;83.70;;;;;;5074874;28;20048;-53
2023/08/19 08:42:23;;;;;;;20.15;18.17;;;24.90;84.30;;;;;;5074636;28;20075;-53
2023/08/19 08:44:50;;;;;;;20.77;18.95;;;24.80;84.90;;;;;;5072657;28;20656;-50
2023/08/19 08:47:18;;;;;;;20.20;18.40;;;24.70;85.00;;;;;;5052418;28;20024;-53
2023/08/19 08:49:47;;;;;;;22.48;20.23;;;24.70;85.30;;;;;;5047722;28;20037;-52
2023/08/19 08:52:13;;;;;;;22.55;20.52;;;24.70;85.40;;;;;;5069841;28;20056;-54
2023/08/19 08:54:41;;;;;;;22.17;20.20;;;24.60;85.30;;;;;;5049523;28;20464;-52
2023/08/19 08:57:08;;;;;;;22.58;20.67;;;24.60;85.50;;;;;;5055121;28;20104;-53
2023/08/19 08:59:34;;;;;;;22.27;20.30;;;24.60;85.50;;;;;;5067810;28;20039;-53
2023/08/19 09:02:04;;;;;;;22.83;20.55;;;24.60;86.00;;;;;;5069502;28;20024;-53
2023/08/19 09:04:31;;;;;;;;;;;24.60;86.20;;;;;;5073135;28;20024;-50
2023/08/19 09:07:08;;;;;;;20.02;18.33;;;24.50;86.20;;;;;;5073723;28;19999;-51
2023/08/19 09:09:39;;;;;;;23.98;21.70;;;24.50;86.40;;;;;;5075085;28;20048;-53
2023/08/19 09:12:11;;;;;;;21.05;19.25;;;24.50;86.00;;;;;;5055826;28;20039;-52
2023/08/19 09:14:58;;;;;;;22.25;20.15;;;24.60;86.10;;;;;;5074505;28;20024;-51
2023/08/19 09:17:24;;;;;;;22.95;20.95;;;24.60;86.00;;;;;;5056833;28;20076;-55
2023/08/19 09:19:51;;;;;;;23.05;20.88;;;24.60;86.00;;;;;;5055493;28;20112;-54
2023/08/19 09:22:41;;;;;;;22.25;20.23;;;24.60;85.60;;;;;;5069145;28;20039;-54
2023/08/19 09:25:13;;;;;;;;;;;24.60;85.30;;;;;;5055041;28;20032;-51
2023/08/19 09:27:44;;;;;;;21.73;19.75;;;24.60;85.90;;;;;;5070963;28;19947;-50
2023/08/19 09:30:16;;;;;;;21.08;19.20;;;24.60;86.10;;;;;;5071580;28;20028;-51
2023/08/19 09:32:45;;;;;;;21.38;19.63;;;24.60;85.90;;;;;;5071833;28;20052;-54
2023/08/19 09:35:13;;;;;;;20.77;18.80;;;24.60;85.90;;;;;;5063518;28;20044;-53
2023/08/19 09:37:40;;;;;;;21.27;19.30;;;24.60;85.70;;;;;;5062500;28;20679;-52
2023/08/19 09:40:10;;;;;;;20.80;19.00;;;24.70;86.00;;;;;;5054962;28;20052;-51
2023/08/19 09:42:37;;;;;;;23.65;21.35;;;24.80;85.40;;;;;;5074003;28;20522;-54
2023/08/19 09:45:07;;;;;;;20.73;18.85;;;24.90;84.90;;;;;;5053511;28;20024;-52
2023/08/19 09:47:54;;;;;;;21.00;18.92;;;24.90;84.50;;;;;;5050291;28;20028;-55
2023/08/19 09:50:23;;;;;;;22.05;19.83;;;25.00;84.80;;;;;;5069254;28;20494;-51
2023/08/19 09:52:59;;;;;;;19.88;18.08;;;24.90;84.40;;;;;;5074287;28;20028;-51
2023/08/19 09:55:29;;;;;;;21.55;19.65;;;24.90;84.50;;;;;;5071495;28;20036;-53
2023/08/19 09:57:56;;;;;;;21.67;19.75;;;25.00;84.50;;;;;;5073805;28;20159;-53
2023/08/19 10:00:23;;;;;;;19.90;18.10;;;24.90;84.10;;;;;;5053148;28;20442;-52
2023/08/19 10:02:50;;;;;;;19.80;18.13;;;24.90;84.30;;;;;;5072671;28;20504;-53
2023/08/19 10:05:17;;;;;;;20.13;18.25;;;25.10;84.20;;;;;;5055877;28;20442;-53
2023/08/19 10:08:07;;;;;;;20.02;18.33;;;25.20;83.50;;;;;;5073656;28;20488;-51
2023/08/19 10:10:39;;;;;;;19.67;17.77;;;25.40;83.60;;;;;;5071101;28;20047;-51
2023/08/19 10:13:08;;;;;;;20.33;18.15;;;25.50;82.30;;;;;;5071971;28;20486;-50
2023/08/19 10:15:36;;;;;;;19.90;18.17;;;25.60;82.40;;;;;;5064780;28;20029;-51
2023/08/19 10:18:11;;;;;;;19.70;18.20;;;25.60;81.90;;;;;;5059369;28;20033;-50
2023/08/19 10:20:41;;;;;;;19.33;17.38;;;25.70;82.00;;;;;;5062520;28;20062;-53
2023/08/19 10:23:07;;;;;;;;;;;25.60;82.40;;;;;;5063201;28;20035;-52
2023/08/19 10:25:34;;;;;;;20.10;18.10;;;25.70;82.10;;;;;;5064707;28;19912;-51
2023/08/19 10:28:27;;;;;;;19.30;17.38;;;25.80;82.70;;;;;;5068877;28;20058;-49
2023/08/19 10:31:15;;;;;;;18.40;16.80;;;25.80;81.70;;;;;;5067289;28;20139;-51
2023/08/19 10:33:46;;;;;;;18.70;17.00;;;26.00;81.80;;;;;;5072552;28;20032;-50
2023/08/19 10:36:17;;;;;;;17.75;16.25;;;26.00;81.40;;;;;;5042084;28;20460;-50
2023/08/19 10:39:02;;;;;;;18.83;17.10;;;26.10;81.60;;;;;;5056837;28;20036;-52
2023/08/19 10:41:36;;;;;;;16.50;15.02;;;26.10;81.10;;;;;;5072363;28;20021;-51
2023/08/19 10:44:27;;;;;;;18.08;16.48;;;26.20;81.80;;;;;;5068608;28;20032;-52
2023/08/19 10:47:09;;;;;;;18.77;17.23;;;26.30;81.40;;;;;;5050906;28;20028;-54
2023/08/19 10:49:36;;;;;;;17.15;15.75;;;26.40;81.20;;;;;;5053574;28;20051;-52
2023/08/19 10:52:06;;;;;;;18.65;17.15;;;26.40;80.80;;;;;;5063277;28;20099;-50
2023/08/19 10:54:43;;;;;;;;;;;26.40;81.10;;;;;;5061565;28;20449;-56
2023/08/19 10:57:16;;;;;;;18.08;16.48;;;26.50;80.50;;;;;;5054095;28;19974;-50
2023/08/19 10:59:46;;;;;;;17.33;15.90;;;26.50;80.00;;;;;;5062789;28;20029;-51
2023/08/19 11:02:14;;;;;;;17.08;15.57;;;26.70;80.20;;;;;;5060689;28;20353;-52
2023/08/19 11:04:50;;;;;;;18.27;16.67;;;26.90;80.30;;;;;;5056264;28;20037;-53
2023/08/19 11:07:19;;;;;;;18.05;16.27;;;26.90;80.00;;;;;;5049018;28;20024;-50
2023/08/19 11:09:50;;;;;;;18.80;17.02;;;26.90;79.50;;;;;;5067618;28;20040;-53
2023/08/19 11:12:26;;;;;;;18.70;16.92;;;26.90;78.60;;;;;;5046001;28;20071;-52
2023/08/19 11:14:56;;;;;;;18.08;16.63;;;27.00;78.80;;;;;;5067870;28;20128;-56
2023/08/19 11:17:32;;;;;;;18.65;16.98;;;27.00;79.10;;;;;;5057298;28;20025;-56
2023/08/19 11:20:07;;;;;;;18.00;16.55;;;27.10;79.00;;;;;;5061089;28;20021;-52
2023/08/19 11:22:48;;;;;;;16.48;15.07;;;27.20;79.10;;;;;;5068349;28;20020;-56
2023/08/19 11:25:15;;;;;;;16.75;15.27;;;27.40;79.40;;;;;;5061832;28;20025;-52
2023/08/19 11:27:43;;;;;;;16.73;15.23;;;27.50;78.60;;;;;;5049786;28;20067;-55
2023/08/19 11:30:11;;;;;;;16.60;15.23;;;27.80;77.60;;;;;;5061319;28;20024;-51
2023/08/19 11:32:43;;;;;;;17.38;15.93;;;27.80;77.10;;;;;;5060843;28;20028;-53
2023/08/19 11:35:10;;;;;;;16.75;14.93;;;27.90;76.70;;;;;;5059873;28;20095;-55
2023/08/19 11:37:38;;;;;;;16.73;15.18;;;27.90;77.00;;;;;;5040601;28;20537;-54
2023/08/19 11:40:08;;;;;;;16.65;15.13;;;27.90;76.20;;;;;;5041421;28;20382;-55
2023/08/19 11:42:35;;;;;;;16.52;14.98;;;27.80;75.80;;;;;;5066100;28;20054;-56
2023/08/19 11:45:01;;;;;;;16.42;15.13;;;27.70;76.60;;;;;;5042426;28;20465;-51
2023/08/19 11:47:33;;;;;;;16.77;15.18;;;27.70;77.10;;;;;;5060304;28;20037;-57
2023/08/19 11:50:06;;;;;;;16.85;15.35;;;27.80;77.40;;;;;;5061031;28;20106;-55
2023/08/19 11:52:34;;;;;;;15.90;14.50;;;27.80;76.90;;;;;;5059876;28;20025;-57
2023/08/19 11:55:07;;;;;;;16.08;14.55;;;27.80;77.00;;;;;;5059016;28;20032;-54
2023/08/19 11:57:36;;;;;;;17.00;15.27;;;27.70;76.70;;;;;;5040828;28;20044;-53
2023/08/19 12:00:15;;;;;;;15.13;13.73;;;27.70;76.80;;;;;;5070231;28;20070;-55
2023/08/19 12:02:44;;;;;;;16.02;14.75;;;27.80;76.60;;;;;;5044115;28;20033;-53
2023/08/19 12:05:11;;;;;;;15.15;13.63;;;27.90;75.20;;;;;;5042603;28;20075;-56
2023/08/19 12:07:36;;;;;;;15.77;14.45;;;27.90;75.70;;;;;;5065723;28;20029;-53
2023/08/19 12:10:07;;;;;;;15.73;14.32;;;28.00;75.50;;;;;;5050434;28;20614;-57
2023/08/19 12:12:35;;;;;;;15.88;14.38;;;27.90;75.60;;;;;;5061645;28;20094;-53
2023/08/19 12:15:05;;;;;;;16.60;15.05;;;27.80;75.30;;;;;;5057635;28;20121;-52
2023/08/19 12:17:35;;;;;;;14.15;13.00;;;27.70;74.90;;;;;;5042615;28;20134;-56
2023/08/19 12:20:02;;;;;;;;;;;27.50;75.20;;;;;;5060207;28;20064;-55
2023/08/19 12:22:29;;;;;;;16.30;14.68;;;27.50;75.60;;;;;;5056483;28;19913;-54
2023/08/19 12:24:56;;;;;;;18.08;16.35;;;27.40;75.80;;;;;;5070139;28;20760;-57
2023/08/19 12:27:23;;;;;;;16.13;14.52;;;27.30;76.50;;;;;;5047768;28;20425;-57
2023/08/19 12:29:50;;;;;;;16.73;15.32;;;27.20;76.20;;;;;;5047365;28;20032;-53
2023/08/19 12:32:16;;;;;;;16.00;14.25;;;27.20;77.00;;;;;;5064629;28;20035;-52
2023/08/19 12:34:45;;;;;;;18.35;16.75;;;27.10;77.60;;;;;;5065841;28;20036;-53
2023/08/19 12:37:12;;;;;;;17.23;15.80;;;27.00;77.70;;;;;;5066499;28;20558;-54
2023/08/19 12:39:38;;;;;;;17.38;15.30;;;26.90;78.20;;;;;;5035829;28;20051;-55
2023/08/19 12:42:05;;;;;;;17.95;16.45;;;26.70;79.00;;;;;;5067444;28;20082;-53
2023/08/19 12:44:32;;;;;;;19.73;17.75;;;26.60;79.70;;;;;;5061897;28;20028;-51